Platte, Nebraska
Current Conditions -  °F | °C
As of 9:53 AM on Thursday 29 Jan 2015 (Local Time) from KHSI Reporting Station
Broken Clouds Broken Clouds  
Wind Chill: 28°   Ceiling: 3300
Heat Index: 39°   Visibility: 10mi
Dew Point: 24°   Wind: 24mph
Humidity: 55%   Direction: 350°N
Pressure: 30.43"   Gusts: 38mph
Location:  40.6115°N, 98.6672°W
Report Text: KHSI 291553Z AUTO 35021G33KT 10SM BKN033 04/M04 A3043 RMK AO2 PK WND 34033/1544 SLP312 T00391044
Loading
Personal Weather Stations






























Interactive Weather Map New forecast layout! Learn more

10-Day Weather Forecast

Advertisements
Track Severe Weather on mobile